sensor_id;sensor_type;location;lat;lon;timestamp;pressure;altitude;pressure_sealevel;temperature;humidity
84653;BME280;74883;48.882;2.092;2024-01-15T00:00:38;100725.25;;;-0.64;93.84
84653;BME280;74883;48.882;2.092;2024-01-15T00:03:03;100713.38;;;-0.66;93.88
84653;BME280;74883;48.882;2.092;2024-01-15T00:05:29;100711.59;;;-0.58;94.50
84653;BME280;74883;48.882;2.092;2024-01-15T00:07:54;100711.53;;;-0.54;93.99
84653;BME280;74883;48.882;2.092;2024-01-15T00:10:19;100705.56;;;-0.54;93.23
84653;BME280;74883;48.882;2.092;2024-01-15T00:12:45;100698.72;;;-0.49;93.90
84653;BME280;74883;48.882;2.092;2024-01-15T00:15:10;100693.66;;;-0.54;92.86
84653;BME280;74883;48.882;2.092;2024-01-15T00:17:35;100690.22;;;-0.51;93.55
84653;BME280;74883;48.882;2.092;2024-01-15T00:20:01;100684.22;;;-0.47;93.42
84653;BME280;74883;48.882;2.092;2024-01-15T00:22:26;100684.19;;;-0.44;92.77
84653;BME280;74883;48.882;2.092;2024-01-15T00:24:52;100680.69;;;-0.37;93.69
84653;BME280;74883;48.882;2.092;2024-01-15T00:27:17;100679.84;;;-0.38;92.98
84653;BME280;74883;48.882;2.092;2024-01-15T00:29:43;100672.13;;;-0.35;92.74
84653;BME280;74883;48.882;2.092;2024-01-15T00:32:08;100672.09;;;-0.30;92.62
84653;BME280;74883;48.882;2.092;2024-01-15T00:34:33;100665.22;;;-0.27;92.13
84653;BME280;74883;48.882;2.092;2024-01-15T00:36:59;100667.75;;;-0.24;92.32
84653;BME280;74883;48.882;2.092;2024-01-15T00:39:24;100665.13;;;-0.21;92.26
84653;BME280;74883;48.882;2.092;2024-01-15T00:41:49;100660.88;;;-0.20;92.13
84653;BME280;74883;48.882;2.092;2024-01-15T00:44:15;100660.88;;;-0.19;92.38
84653;BME280;74883;48.882;2.092;2024-01-15T00:46:44;100647.25;;;-0.19;92.34
84653;BME280;74883;48.882;2.092;2024-01-15T00:49:11;100643.00;;;-0.20;91.96
84653;BME280;74883;48.882;2.092;2024-01-15T00:51:36;100633.66;;;-0.21;91.56
84653;BME280;74883;48.882;2.092;2024-01-15T00:54:02;100629.41;;;-0.22;91.79
84653;BME280;74883;48.882;2.092;2024-01-15T00:56:27;100637.09;;;-0.24;91.77
84653;BME280;74883;48.882;2.092;2024-01-15T00:58:52;100633.66;;;-0.21;92.79
84653;BME280;74883;48.882;2.092;2024-01-15T01:01:18;100631.13;;;-0.24;92.80
84653;BME280;74883;48.882;2.092;2024-01-15T01:03:43;100636.22;;;-0.23;92.89
84653;BME280;74883;48.882;2.092;2024-01-15T01:06:09;100626.00;;;-0.23;92.12
84653;BME280;74883;48.882;2.092;2024-01-15T01:08:34;100616.53;;;-0.16;91.61
84653;BME280;74883;48.882;2.092;2024-01-15T01:10:59;100623.34;;;-0.15;91.58
84653;BME280;74883;48.882;2.092;2024-01-15T01:13:25;100625.88;;;-0.12;91.38
84653;BME280;74883;48.882;2.092;2024-01-15T01:15:50;100626.75;;;-0.16;91.66
84653;BME280;74883;48.882;2.092;2024-01-15T01:18:16;100612.31;;;-0.17;92.18
84653;BME280;74883;48.882;2.092;2024-01-15T01:20:41;100609.78;;;-0.19;91.94
84653;BME280;74883;48.882;2.092;2024-01-15T01:23:06;100609.78;;;-0.20;92.47
84653;BME280;74883;48.882;2.092;2024-01-15T01:25:32;100606.34;;;-0.18;91.82
84653;BME280;74883;48.882;2.092;2024-01-15T01:27:57;100604.53;;;-0.10;92.09
84653;BME280;74883;48.882;2.092;2024-01-15T01:30:22;100596.00;;;-0.09;92.53
84653;BME280;74883;48.882;2.092;2024-01-15T01:32:48;100597.66;;;-0.06;92.35
84653;BME280;74883;48.882;2.092;2024-01-15T01:35:13;100595.97;;;-0.06;92.32
84653;BME280;74883;48.882;2.092;2024-01-15T01:37:39;100605.28;;;-0.03;92.87
84653;BME280;74883;48.882;2.092;2024-01-15T01:40:05;100605.28;;;-0.03;92.16
84653;BME280;74883;48.882;2.092;2024-01-15T01:42:30;100602.69;;;0.00;92.32
84653;BME280;74883;48.882;2.092;2024-01-15T01:44:56;100600.88;;;0.07;92.40
84653;BME280;74883;48.882;2.092;2024-01-15T01:47:21;100606.78;;;0.10;91.00
84653;BME280;74883;48.882;2.092;2024-01-15T01:49:46;100607.69;;;0.06;91.54
84653;BME280;74883;48.882;2.092;2024-01-15T01:52:13;100616.28;;;0.00;91.73
84653;BME280;74883;48.882;2.092;2024-01-15T01:54:39;100607.03;;;-0.05;92.36
84653;BME280;74883;48.882;2.092;2024-01-15T01:57:05;100601.06;;;-0.06;92.14
84653;BME280;74883;48.882;2.092;2024-01-15T01:59:32;100592.47;;;-0.02;92.53
84653;BME280;74883;48.882;2.092;2024-01-15T02:02:00;100592.50;;;-0.03;92.21
84653;BME280;74883;48.882;2.092;2024-01-15T02:04:27;100560.94;;;0.01;93.68
84653;BME280;74883;48.882;2.092;2024-01-15T02:06:53;100560.13;;;-0.01;92.99
84653;BME280;74883;48.882;2.092;2024-01-15T02:09:18;100567.78;;;-0.01;93.01
84653;BME280;74883;48.882;2.092;2024-01-15T02:11:46;100559.25;;;0.00;93.20
84653;BME280;74883;48.882;2.092;2024-01-15T02:14:12;100565.25;;;-0.03;92.73
84653;BME280;74883;48.882;2.092;2024-01-15T02:16:37;100567.00;;;-0.06;93.05
84653;BME280;74883;48.882;2.092;2024-01-15T02:19:03;100558.50;;;-0.05;92.98
84653;BME280;74883;48.882;2.092;2024-01-15T02:21:28;100558.50;;;-0.05;92.65
84653;BME280;74883;48.882;2.092;2024-01-15T02:23:54;100554.19;;;-0.05;92.96
84653;BME280;74883;48.882;2.092;2024-01-15T02:26:20;100573.78;;;-0.04;93.04
84653;BME280;74883;48.882;2.092;2024-01-15T02:28:47;100580.59;;;-0.03;93.28
84653;BME280;74883;48.882;2.092;2024-01-15T02:31:12;100576.38;;;-0.05;92.72
84653;BME280;74883;48.882;2.092;2024-01-15T02:33:37;100576.38;;;-0.05;92.85
84653;BME280;74883;48.882;2.092;2024-01-15T02:36:03;100562.78;;;-0.07;92.95
84653;BME280;74883;48.882;2.092;2024-01-15T02:38:28;100559.31;;;-0.03;93.02
84653;BME280;74883;48.882;2.092;2024-01-15T02:40:54;100577.16;;;0.00;92.56
84653;BME280;74883;48.882;2.092;2024-01-15T02:43:19;100572.84;;;0.02;91.97
84653;BME280;74883;48.882;2.092;2024-01-15T02:45:45;100571.03;;;0.07;91.70
84653;BME280;74883;48.882;2.092;2024-01-15T02:48:11;100582.91;;;0.11;92.00
84653;BME280;74883;48.882;2.092;2024-01-15T02:50:37;100579.44;;;0.15;91.51
84653;BME280;74883;48.882;2.092;2024-01-15T02:53:02;100582.94;;;0.10;91.71
84653;BME280;74883;48.882;2.092;2024-01-15T02:55:28;100572.75;;;0.08;92.30
84653;BME280;74883;48.882;2.092;2024-01-15T02:57:54;100580.44;;;0.05;93.05
84653;BME280;74883;48.882;2.092;2024-01-15T03:00:20;100566.00;;;0.04;92.76
84653;BME280;74883;48.882;2.092;2024-01-15T03:02:45;100572.00;;;0.02;93.18
84653;BME280;74883;48.882;2.092;2024-01-15T03:05:11;100560.09;;;0.00;93.49
84653;BME280;74883;48.882;2.092;2024-01-15T03:07:36;100568.56;;;0.03;94.05
84653;BME280;74883;48.882;2.092;2024-01-15T03:10:02;100562.63;;;0.02;93.52
84653;BME280;74883;48.882;2.092;2024-01-15T03:12:27;100570.31;;;0.00;93.43
84653;BME280;74883;48.882;2.092;2024-01-15T03:14:53;100578.00;;;-0.01;93.79
84653;BME280;74883;48.882;2.092;2024-01-15T03:17:18;100583.09;;;-0.01;93.94
84653;BME280;74883;48.882;2.092;2024-01-15T03:19:44;100583.97;;;-0.02;93.98
84653;BME280;74883;48.882;2.092;2024-01-15T03:22:09;100585.63;;;0.02;93.93
84653;BME280;74883;48.882;2.092;2024-01-15T03:24:35;100584.75;;;0.03;94.13
84653;BME280;74883;48.882;2.092;2024-01-15T03:27:01;100586.41;;;0.06;93.58
84653;BME280;74883;48.882;2.092;2024-01-15T03:29:26;100581.94;;;0.18;94.15
84653;BME280;74883;48.882;2.092;2024-01-15T03:31:52;100599.72;;;0.24;93.68
84653;BME280;74883;48.882;2.092;2024-01-15T03:34:17;100593.69;;;0.28;93.57
84653;BME280;74883;48.882;2.092;2024-01-15T03:36:43;100593.00;;;0.20;94.05
84653;BME280;74883;48.882;2.092;2024-01-15T03:39:08;100591.38;;;0.15;93.68
84653;BME280;74883;48.882;2.092;2024-01-15T03:41:34;100589.69;;;0.12;93.17
84653;BME280;74883;48.882;2.092;2024-01-15T03:43:59;100589.69;;;0.12;93.47
84653;BME280;74883;48.882;2.092;2024-01-15T03:46:24;100588.84;;;0.13;92.88
84653;BME280;74883;48.882;2.092;2024-01-15T03:48:50;100585.44;;;0.13;93.80
84653;BME280;74883;48.882;2.092;2024-01-15T03:51:17;100585.50;;;0.08;94.01
84653;BME280;74883;48.882;2.092;2024-01-15T03:53:43;100581.25;;;0.07;93.82
84653;BME280;74883;48.882;2.092;2024-01-15T03:56:08;100570.19;;;0.08;93.70
84653;BME280;74883;48.882;2.092;2024-01-15T03:58:33;100560.78;;;0.10;93.94
84653;BME280;74883;48.882;2.092;2024-01-15T04:00:59;100556.47;;;0.12;93.28
84653;BME280;74883;48.882;2.092;2024-01-15T04:03:24;100557.34;;;0.13;93.01
84653;BME280;74883;48.882;2.092;2024-01-15T04:05:49;100553.16;;;0.07;93.39
84653;BME280;74883;48.882;2.092;2024-01-15T04:08:17;100544.69;;;0.05;93.90
84653;BME280;74883;48.882;2.092;2024-01-15T04:10:43;100538.75;;;0.05;94.05
84653;BME280;74883;48.882;2.092;2024-01-15T04:13:08;100536.94;;;0.11;93.48
84653;BME280;74883;48.882;2.092;2024-01-15T04:15:34;100535.22;;;0.10;94.23
84653;BME280;74883;48.882;2.092;2024-01-15T04:18:00;100535.16;;;0.15;93.84
84653;BME280;74883;48.882;2.092;2024-01-15T04:20:26;100534.38;;;0.11;93.80
84653;BME280;74883;48.882;2.092;2024-01-15T04:22:52;100534.34;;;0.13;94.04
84653;BME280;74883;48.882;2.092;2024-01-15T04:25:17;100528.38;;;0.12;94.51
84653;BME280;74883;48.882;2.092;2024-01-15T04:27:42;100519.13;;;0.07;94.54
84653;BME280;74883;48.882;2.092;2024-01-15T04:30:08;100526.78;;;0.07;94.82
84653;BME280;74883;48.882;2.092;2024-01-15T04:32:33;100515.75;;;0.05;94.73
84653;BME280;74883;48.882;2.092;2024-01-15T04:34:59;100518.41;;;0.00;95.24
84653;BME280;74883;48.882;2.092;2024-01-15T04:37:24;100514.09;;;0.00;94.98
84653;BME280;74883;48.882;2.092;2024-01-15T04:39:49;100510.66;;;0.05;95.08
84653;BME280;74883;48.882;2.092;2024-01-15T04:42:18;100509.72;;;0.07;95.16
84653;BME280;74883;48.882;2.092;2024-01-15T04:44:43;100502.00;;;0.10;94.91
84653;BME280;74883;48.882;2.092;2024-01-15T04:47:08;100505.38;;;0.14;94.84
84653;BME280;74883;48.882;2.092;2024-01-15T04:49:34;100505.41;;;0.11;94.94
84653;BME280;74883;48.882;2.092;2024-01-15T04:51:59;100504.56;;;0.10;95.08
84653;BME280;74883;48.882;2.092;2024-01-15T04:54:24;100499.47;;;0.10;95.23
84653;BME280;74883;48.882;2.092;2024-01-15T04:56:49;100501.94;;;0.15;95.06
84653;BME280;74883;48.882;2.092;2024-01-15T04:59:15;100501.09;;;0.14;95.19
84653;BME280;74883;48.882;2.092;2024-01-15T05:01:40;100500.25;;;0.14;95.07
84653;BME280;74883;48.882;2.092;2024-01-15T05:04:05;100512.97;;;0.18;95.07
84653;BME280;74883;48.882;2.092;2024-01-15T05:06:31;100508.78;;;0.13;94.80
84653;BME280;74883;48.882;2.092;2024-01-15T05:08:56;100515.59;;;0.12;94.96
84653;BME280;74883;48.882;2.092;2024-01-15T05:11:22;100513.03;;;0.14;95.25
84653;BME280;74883;48.882;2.092;2024-01-15T05:13:47;100505.25;;;0.20;95.25
84653;BME280;74883;48.882;2.092;2024-01-15T05:16:12;100505.97;;;0.26;95.54
84653;BME280;74883;48.882;2.092;2024-01-15T05:18:37;100505.97;;;0.28;95.38
84653;BME280;74883;48.882;2.092;2024-01-15T05:21:03;100496.59;;;0.27;95.31
84653;BME280;74883;48.882;2.092;2024-01-15T05:23:31;100494.81;;;0.30;95.33
84653;BME280;74883;48.882;2.092;2024-01-15T05:25:56;100492.31;;;0.29;94.81
84653;BME280;74883;48.882;2.092;2024-01-15T05:28:22;100487.16;;;0.30;95.44
84653;BME280;74883;48.882;2.092;2024-01-15T05:30:47;100487.09;;;0.33;95.08
84653;BME280;74883;48.882;2.092;2024-01-15T05:33:13;100491.34;;;0.34;95.12
84653;BME280;74883;48.882;2.092;2024-01-15T05:35:38;100480.25;;;0.37;95.08
84653;BME280;74883;48.882;2.092;2024-01-15T05:38:04;100487.72;;;0.46;95.04
84653;BME280;74883;48.882;2.092;2024-01-15T05:40:29;100491.84;;;0.51;94.65
84653;BME280;74883;48.882;2.092;2024-01-15T05:42:54;100485.03;;;0.52;94.36
84653;BME280;74883;48.882;2.092;2024-01-15T05:45:20;100483.50;;;0.43;94.58
84653;BME280;74883;48.882;2.092;2024-01-15T05:47:45;100477.59;;;0.41;94.78
84653;BME280;74883;48.882;2.092;2024-01-15T05:50:11;100474.22;;;0.39;95.09
84653;BME280;74883;48.882;2.092;2024-01-15T05:52:37;100470.81;;;0.39;95.11
84653;BME280;74883;48.882;2.092;2024-01-15T05:55:02;100463.97;;;0.41;94.79
84653;BME280;74883;48.882;2.092;2024-01-15T05:57:28;100477.47;;;0.47;94.96
84653;BME280;74883;48.882;2.092;2024-01-15T05:59:53;100474.88;;;0.49;95.21
84653;BME280;74883;48.882;2.092;2024-01-15T06:02:19;100472.25;;;0.53;95.44
84653;BME280;74883;48.882;2.092;2024-01-15T06:04:44;100475.63;;;0.55;94.97
84653;BME280;74883;48.882;2.092;2024-01-15T06:07:09;100482.47;;;0.52;95.35
84653;BME280;74883;48.882;2.092;2024-01-15T06:09:35;100475.75;;;0.48;95.48
84653;BME280;74883;48.882;2.092;2024-01-15T06:12:00;100485.03;;;0.53;95.47
84653;BME280;74883;48.882;2.092;2024-01-15T06:14:25;100481.63;;;0.53;95.42
84653;BME280;74883;48.882;2.092;2024-01-15T06:16:54;100476.53;;;0.51;94.64
84653;BME280;74883;48.882;2.092;2024-01-15T06:19:19;100479.06;;;0.53;95.16
84653;BME280;74883;48.882;2.092;2024-01-15T06:21:45;100486.69;;;0.54;95.14
84653;BME280;74883;48.882;2.092;2024-01-15T06:24:10;100483.28;;;0.54;95.35
84653;BME280;74883;48.882;2.092;2024-01-15T06:26:36;100481.53;;;0.57;95.57
84653;BME280;74883;48.882;2.092;2024-01-15T06:29:01;100485.03;;;0.53;94.80
84653;BME280;74883;48.882;2.092;2024-01-15T06:31:28;100478.94;;;0.59;95.49
84653;BME280;74883;48.882;2.092;2024-01-15T06:33:53;100478.06;;;0.60;95.46
84653;BME280;74883;48.882;2.092;2024-01-15T06:36:18;100475.53;;;0.58;95.49
84653;BME280;74883;48.882;2.092;2024-01-15T06:38:44;100484.91;;;0.59;95.75
84653;BME280;74883;48.882;2.092;2024-01-15T06:41:09;100483.19;;;0.60;95.63
84653;BME280;74883;48.882;2.092;2024-01-15T06:43:35;100489.06;;;0.63;95.39
84653;BME280;74883;48.882;2.092;2024-01-15T06:46:00;100494.22;;;0.62;95.17
84653;BME280;74883;48.882;2.092;2024-01-15T06:48:26;100486.50;;;0.63;95.21
84653;BME280;74883;48.882;2.092;2024-01-15T06:50:51;100491.53;;;0.68;95.54
84653;BME280;74883;48.882;2.092;2024-01-15T06:53:16;100494.19;;;0.65;95.45
84653;BME280;74883;48.882;2.092;2024-01-15T06:55:42;100494.97;;;0.67;95.14
84653;BME280;74883;48.882;2.092;2024-01-15T06:58:07;100488.13;;;0.67;95.38
84653;BME280;74883;48.882;2.092;2024-01-15T07:00:32;100479.66;;;0.65;94.98
84653;BME280;74883;48.882;2.092;2024-01-15T07:02:58;100483.94;;;0.65;95.15
84653;BME280;74883;48.882;2.092;2024-01-15T07:05:24;100494.13;;;0.66;95.34
84653;BME280;74883;48.882;2.092;2024-01-15T07:07:49;100482.16;;;0.68;94.73
84653;BME280;74883;48.882;2.092;2024-01-15T07:10:15;100481.34;;;0.66;95.23
84653;BME280;74883;48.882;2.092;2024-01-15T07:12:44;100493.19;;;0.70;95.36
84653;BME280;74883;48.882;2.092;2024-01-15T07:15:10;100502.50;;;0.73;95.51
84653;BME280;74883;48.882;2.092;2024-01-15T07:17:35;100510.22;;;0.72;95.01
84653;BME280;74883;48.882;2.092;2024-01-15T07:20:07;100500.81;;;0.72;95.24
84653;BME280;74883;48.882;2.092;2024-01-15T07:22:35;100511.00;;;0.75;95.00
84653;BME280;74883;48.882;2.092;2024-01-15T07:25:00;100510.22;;;0.72;95.02
84653;BME280;74883;48.882;2.092;2024-01-15T07:27:25;100516.16;;;0.74;95.12
84653;BME280;74883;48.882;2.092;2024-01-15T07:29:51;100514.53;;;0.69;95.39
84653;BME280;74883;48.882;2.092;2024-01-15T07:32:17;100529.00;;;0.70;95.34
84653;BME280;74883;48.882;2.092;2024-01-15T07:34:42;100523.88;;;0.70;95.29
84653;BME280;74883;48.882;2.092;2024-01-15T07:37:08;100527.22;;;0.74;95.50
84653;BME280;74883;48.882;2.092;2024-01-15T07:39:33;100525.56;;;0.72;95.44
84653;BME280;74883;48.882;2.092;2024-01-15T07:41:59;100535.72;;;0.75;95.12
84653;BME280;74883;48.882;2.092;2024-01-15T07:44:25;100532.25;;;0.79;95.52
84653;BME280;74883;48.882;2.092;2024-01-15T07:46:50;100536.53;;;0.78;94.98
84653;BME280;74883;48.882;2.092;2024-01-15T07:49:16;100536.47;;;0.81;95.10
84653;BME280;74883;48.882;2.092;2024-01-15T07:51:42;100538.13;;;0.84;95.27
84653;BME280;74883;48.882;2.092;2024-01-15T07:54:09;100538.13;;;0.84;95.06
84653;BME280;74883;48.882;2.092;2024-01-15T07:56:35;100552.63;;;0.82;95.27
84653;BME280;74883;48.882;2.092;2024-01-15T07:59:17;100560.31;;;0.83;95.74
84653;BME280;74883;48.882;2.092;2024-01-15T08:01:43;100556.03;;;0.84;94.99
84653;BME280;74883;48.882;2.092;2024-01-15T08:04:08;100548.28;;;0.87;95.08
84653;BME280;74883;48.882;2.092;2024-01-15T08:06:34;100550.63;;;0.97;95.26
84653;BME280;74883;48.882;2.092;2024-01-15T08:08:59;100550.44;;;1.05;95.31
84653;BME280;74883;48.882;2.092;2024-01-15T08:11:25;100552.16;;;1.06;94.56
84653;BME280;74883;48.882;2.092;2024-01-15T08:13:50;100548.88;;;0.99;93.68
84653;BME280;74883;48.882;2.092;2024-01-15T08:16:16;100548.91;;;0.98;93.39
84653;BME280;74883;48.882;2.092;2024-01-15T08:18:41;100554.66;;;1.09;93.60
84653;BME280;74883;48.882;2.092;2024-01-15T08:21:07;100557.22;;;1.07;93.56
84653;BME280;74883;48.882;2.092;2024-01-15T08:23:34;100553.06;;;1.03;92.72
84653;BME280;74883;48.882;2.092;2024-01-15T08:25:59;100564.59;;;1.22;93.48
84653;BME280;74883;48.882;2.092;2024-01-15T08:28:25;100571.34;;;1.26;93.21
84653;BME280;74883;48.882;2.092;2024-01-15T08:30:50;100561.16;;;1.23;92.63
84653;BME280;74883;48.882;2.092;2024-01-15T08:33:16;100559.44;;;1.24;92.99
84653;BME280;74883;48.882;2.092;2024-01-15T08:35:41;100572.84;;;1.36;92.59
84653;BME280;74883;48.882;2.092;2024-01-15T08:38:06;100575.34;;;1.38;92.34
84653;BME280;74883;48.882;2.092;2024-01-15T08:40:32;100584.72;;;1.39;91.05
84653;BME280;74883;48.882;2.092;2024-01-15T08:42:57;100582.81;;;1.47;91.40
84653;BME280;74883;48.882;2.092;2024-01-15T08:45:22;100591.31;;;1.49;91.12
84653;BME280;74883;48.882;2.092;2024-01-15T08:47:48;100589.53;;;1.53;90.89
84653;BME280;74883;48.882;2.092;2024-01-15T08:50:13;100600.50;;;1.59;89.64
84653;BME280;74883;48.882;2.092;2024-01-15T08:52:39;100603.00;;;1.61;89.51
84653;BME280;74883;48.882;2.092;2024-01-15T08:55:04;100598.50;;;1.72;88.14
84653;BME280;74883;48.882;2.092;2024-01-15T08:57:29;100605.19;;;1.77;87.41
84653;BME280;74883;48.882;2.092;2024-01-15T08:59:55;100611.06;;;1.82;89.12
84653;BME280;74883;48.882;2.092;2024-01-15T09:02:20;100619.66;;;1.80;88.41
84653;BME280;74883;48.882;2.092;2024-01-15T09:04:46;100610.13;;;1.86;89.13
84653;BME280;74883;48.882;2.092;2024-01-15T09:07:12;100609.19;;;1.89;87.17
84653;BME280;74883;48.882;2.092;2024-01-15T09:09:37;100609.94;;;1.94;88.67
84653;BME280;74883;48.882;2.092;2024-01-15T09:12:02;100615.03;;;1.95;88.11
84653;BME280;74883;48.882;2.092;2024-01-15T09:14:27;100621.03;;;1.94;87.11
84653;BME280;74883;48.882;2.092;2024-01-15T09:16:54;100621.78;;;1.99;85.66
84653;BME280;74883;48.882;2.092;2024-01-15T09:19:19;100631.13;;;2.02;86.52
84653;BME280;74883;48.882;2.092;2024-01-15T09:21:45;100625.06;;;2.04;86.58
84653;BME280;74883;48.882;2.092;2024-01-15T09:24:10;100614.91;;;2.00;84.26
84653;BME280;74883;48.882;2.092;2024-01-15T09:26:36;100621.78;;;1.99;84.67
84653;BME280;74883;48.882;2.092;2024-01-15T09:29:01;100618.47;;;1.94;85.59
84653;BME280;74883;48.882;2.092;2024-01-15T09:31:28;100614.31;;;1.90;83.37
84653;BME280;74883;48.882;2.092;2024-01-15T09:33:53;100617.75;;;1.89;83.94
84653;BME280;74883;48.882;2.092;2024-01-15T09:36:21;100623.06;;;1.80;83.18
84653;BME280;74883;48.882;2.092;2024-01-15T09:38:48;100618.72;;;1.84;84.94
84653;BME280;74883;48.882;2.092;2024-01-15T09:41:13;100629.59;;;1.93;83.73
84653;BME280;74883;48.882;2.092;2024-01-15T09:43:38;100630.22;;;2.03;83.90
84653;BME280;74883;48.882;2.092;2024-01-15T09:46:04;100632.72;;;2.06;83.07
84653;BME280;74883;48.882;2.092;2024-01-15T09:48:30;100622.38;;;2.10;83.65
84653;BME280;74883;48.882;2.092;2024-01-15T09:50:57;100628.22;;;2.16;83.96
84653;BME280;74883;48.882;2.092;2024-01-15T09:53:25;100628.22;;;2.16;82.97
84653;BME280;74883;48.882;2.092;2024-01-15T09:55:50;100632.44;;;2.18;83.77
84653;BME280;74883;48.882;2.092;2024-01-15T09:58:15;100635.03;;;2.17;83.13
84653;BME280;74883;48.882;2.092;2024-01-15T10:00:42;100638.50;;;2.16;81.12
84653;BME280;74883;48.882;2.092;2024-01-15T10:03:09;100640.91;;;2.22;83.30
84653;BME280;74883;48.882;2.092;2024-01-15T10:05:36;100637.59;;;2.17;85.10
84653;BME280;74883;48.882;2.092;2024-01-15T10:08:02;100633.63;;;2.03;82.70
84653;BME280;74883;48.882;2.092;2024-01-15T10:10:29;100646.53;;;2.00;82.80
84653;BME280;74883;48.882;2.092;2024-01-15T10:12:55;100646.63;;;1.96;83.22
84653;BME280;74883;48.882;2.092;2024-01-15T10:15:23;100642.19;;;2.02;82.96
84653;BME280;74883;48.882;2.092;2024-01-15T10:17:50;100649.44;;;2.22;84.11
84653;BME280;74883;48.882;2.092;2024-01-15T10:20:15;100645.97;;;2.23;82.39
84653;BME280;74883;48.882;2.092;2024-01-15T10:22:42;100662.84;;;2.33;83.56
84653;BME280;74883;48.882;2.092;2024-01-15T10:25:11;100652.84;;;2.58;85.77
84653;BME280;74883;48.882;2.092;2024-01-15T10:27:36;100652.97;;;2.52;82.64
84653;BME280;74883;48.882;2.092;2024-01-15T10:30:02;100651.47;;;2.43;80.81
84653;BME280;74883;48.882;2.092;2024-01-15T10:32:28;100648.22;;;2.37;79.27
84653;BME280;74883;48.882;2.092;2024-01-15T10:34:54;100659.19;;;2.43;80.05
84653;BME280;74883;48.882;2.092;2024-01-15T10:37:19;100660.44;;;2.61;81.61
84653;BME280;74883;48.882;2.092;2024-01-15T10:39:46;100668.91;;;2.64;80.16
84653;BME280;74883;48.882;2.092;2024-01-15T10:42:11;100676.72;;;2.60;76.99
84653;BME280;74883;48.882;2.092;2024-01-15T10:44:37;100663.91;;;2.60;81.80
84653;BME280;74883;48.882;2.092;2024-01-15T10:47:02;100669.25;;;2.51;80.72
84653;BME280;74883;48.882;2.092;2024-01-15T10:49:29;100670.19;;;2.47;79.27
84653;BME280;74883;48.882;2.092;2024-01-15T10:51:56;100677.59;;;2.59;82.61
84653;BME280;74883;48.882;2.092;2024-01-15T10:54:22;100663.78;;;2.64;78.69
84653;BME280;74883;48.882;2.092;2024-01-15T10:56:49;100666.97;;;2.74;77.30
84653;BME280;74883;48.882;2.092;2024-01-15T10:59:15;100681.47;;;2.75;71.75
84653;BME280;74883;48.882;2.092;2024-01-15T11:01:42;100681.09;;;2.90;80.50
84653;BME280;74883;48.882;2.092;2024-01-15T11:04:08;100669.34;;;2.80;76.80
84653;BME280;74883;48.882;2.092;2024-01-15T11:06:45;100672.66;;;2.85;76.27
84653;BME280;74883;48.882;2.092;2024-01-15T11:09:14;100676.75;;;2.91;79.96
84653;BME280;74883;48.882;2.092;2024-01-15T11:11:42;100671.50;;;2.95;78.10
84653;BME280;74883;48.882;2.092;2024-01-15T11:14:08;100670.44;;;3.04;77.32
84653;BME280;74883;48.882;2.092;2024-01-15T11:16:53;100669.00;;;2.94;74.64
84653;BME280;74883;48.882;2.092;2024-01-15T11:19:19;100677.81;;;2.83;68.80
84653;BME280;74883;48.882;2.092;2024-01-15T11:21:44;100662.88;;;2.99;74.22
84653;BME280;74883;48.882;2.092;2024-01-15T11:24:10;100676.97;;;3.15;80.31
84653;BME280;74883;48.882;2.092;2024-01-15T11:31:57;100675.69;;;3.30;81.79
84653;BME280;74883;48.882;2.092;2024-01-15T11:34:53;100677.47;;;3.28;73.01
84653;BME280;74883;48.882;2.092;2024-01-15T11:37:20;100677.03;;;3.12;68.37
84653;BME280;74883;48.882;2.092;2024-01-15T11:39:46;100680.38;;;3.16;66.87
84653;BME280;74883;48.882;2.092;2024-01-15T11:42:13;100660.66;;;3.18;68.75
84653;BME280;74883;48.882;2.092;2024-01-15T11:44:39;100663.09;;;3.21;70.37
84653;BME280;74883;48.882;2.092;2024-01-15T11:47:11;100674.34;;;3.17;63.98
84653;BME280;74883;48.882;2.092;2024-01-15T11:50:00;100665.53;;;3.25;70.13
84653;BME280;74883;48.882;2.092;2024-01-15T11:52:37;100665.47;;;3.28;72.99
84653;BME280;74883;48.882;2.092;2024-01-15T11:57:46;100661.78;;;3.37;65.32
84653;BME280;74883;48.882;2.092;2024-01-15T12:00:13;100661.72;;;3.40;71.15
84653;BME280;74883;48.882;2.092;2024-01-15T12:02:40;100664.22;;;3.43;76.72
84653;BME280;74883;48.882;2.092;2024-01-15T12:05:07;100662.63;;;3.39;62.82
84653;BME280;74883;48.882;2.092;2024-01-15T12:07:32;100663.88;;;3.53;76.41
84653;BME280;74883;48.882;2.092;2024-01-15T12:09:58;100659.59;;;3.54;73.32
84653;BME280;74883;48.882;2.092;2024-01-15T12:15:38;100655.66;;;3.72;72.33
84653;BME280;74883;48.882;2.092;2024-01-15T12:18:07;100654.16;;;3.65;72.52
84653;BME280;74883;48.882;2.092;2024-01-15T12:20:33;100666.59;;;3.49;73.48
84653;BME280;74883;48.882;2.092;2024-01-15T12:22:59;100668.44;;;3.44;75.32
84653;BME280;74883;48.882;2.092;2024-01-15T12:25:25;100674.56;;;3.40;70.26
84653;BME280;74883;48.882;2.092;2024-01-15T12:27:54;100665.63;;;3.53;74.57
84653;BME280;74883;48.882;2.092;2024-01-15T12:30:20;100668.69;;;3.66;73.73
84653;BME280;74883;48.882;2.092;2024-01-15T12:32:45;100669.38;;;3.71;72.62
84653;BME280;74883;48.882;2.092;2024-01-15T12:35:14;100665.88;;;3.73;72.15
84653;BME280;74883;48.882;2.092;2024-01-15T12:37:40;100663.09;;;3.81;66.76
84653;BME280;74883;48.882;2.092;2024-01-15T12:40:07;100675.06;;;3.82;77.20
84653;BME280;74883;48.882;2.092;2024-01-15T12:42:33;100674.34;;;3.77;67.77
84653;BME280;74883;48.882;2.092;2024-01-15T12:45:00;100673.47;;;3.78;69.08
84653;BME280;74883;48.882;2.092;2024-01-15T12:47:25;100668.53;;;3.72;67.24
84653;BME280;74883;48.882;2.092;2024-01-15T12:49:52;100660.75;;;3.73;68.79
84653;BME280;74883;48.882;2.092;2024-01-15T12:52:20;100666.59;;;3.78;71.17
84653;BME280;74883;48.882;2.092;2024-01-15T12:54:49;100666.53;;;3.80;72.48
84653;BME280;74883;48.882;2.092;2024-01-15T12:57:16;100663.53;;;3.95;69.63
84653;BME280;74883;48.882;2.092;2024-01-15T12:59:42;100650.41;;;4.02;63.40
84653;BME280;74883;48.882;2.092;2024-01-15T13:02:07;100657.84;;;4.11;62.49